Time;durP1;ratioP1;P1;durP2;ratioP2;P2;SDS_P1;SDS_P2;PMS_P1;PMS_P2;Temp;Humidity;BMP_temperature;BMP_pressure;BME280_temperature;BME280_humidity;BME280_pressure;Samples;Min_cycle;Max_cycle;Signal;HPM_P1;HPM_P2
2021/05/03 00:00:04;;;;;;;10.07;8.70;;;4.30;99.90;;;;;;5065127;28;21038;-79
2021/05/03 00:02:30;;;;;;;10.80;8.93;;;4.30;99.90;;;;;;5065238;28;20449;-79
2021/05/03 00:04:56;;;;;;;9.60;8.33;;;4.30;99.90;;;;;;5084000;28;20429;-79
2021/05/03 00:07:21;;;;;;;9.93;8.93;;;4.30;99.90;;;;;;5083816;28;20222;-79
2021/05/03 00:09:47;;;;;;;9.77;8.50;;;4.20;99.90;;;;;;5065646;28;20322;-79
2021/05/03 00:12:13;;;;;;;8.63;7.73;;;4.30;99.90;;;;;;5083504;28;20225;-79
2021/05/03 00:14:38;;;;;;;9.33;8.00;;;4.20;99.90;;;;;;5083896;28;20180;-79
2021/05/03 00:17:04;;;;;;;9.17;8.23;;;4.20;99.90;;;;;;5083877;28;20179;-79
2021/05/03 00:19:30;;;;;;;10.17;8.60;;;4.20;99.90;;;;;;5065915;28;20208;-79
2021/05/03 00:21:55;;;;;;;9.43;8.53;;;4.20;99.90;;;;;;5083945;28;20192;-79
2021/05/03 00:24:21;;;;;;;10.93;8.63;;;4.30;99.90;;;;;;5084568;28;20237;-79
2021/05/03 00:26:46;;;;;;;10.47;8.30;;;4.10;99.90;;;;;;5084560;28;20615;-79
2021/05/03 00:29:12;;;;;;;9.00;8.07;;;4.10;99.90;;;;;;5084382;28;20199;-79
2021/05/03 00:31:38;;;;;;;9.10;8.20;;;4.10;99.90;;;;;;5066108;28;20231;-79
2021/05/03 00:34:04;;;;;;;10.20;9.20;;;4.10;99.90;;;;;;5083003;28;20569;-79
2021/05/03 00:36:30;;;;;;;9.50;8.23;;;4.20;99.90;;;;;;5064397;28;20180;-79
2021/05/03 00:38:56;;;;;;;10.47;8.87;;;4.10;99.90;;;;;;5087499;28;20215;-79
2021/05/03 00:41:21;;;;;;;10.83;8.43;;;4.00;99.90;;;;;;5089886;28;20415;-79
2021/05/03 00:43:47;;;;;;;10.60;8.67;;;4.10;99.90;;;;;;5095248;28;20180;-79
2021/05/03 00:46:18;;;;;;;8.33;7.53;;;4.10;99.90;;;;;;5079601;28;20188;-79
2021/05/03 00:48:44;;;;;;;8.90;8.00;;;4.00;99.90;;;;;;5074460;28;20240;-79
2021/05/03 00:51:10;;;;;;;9.67;8.33;;;4.00;99.90;;;;;;5068378;28;20469;-79
2021/05/03 00:53:35;;;;;;;9.17;8.13;;;4.00;99.90;;;;;;5085479;28;20180;-79
2021/05/03 00:56:01;;;;;;;9.83;8.43;;;4.00;99.90;;;;;;5085950;28;20181;-79
2021/05/03 00:58:27;;;;;;;11.53;8.83;;;4.00;99.90;;;;;;5067110;28;20176;-79
2021/05/03 01:00:53;;;;;;;9.53;8.53;;;4.00;99.90;;;;;;5084747;28;20602;-79
2021/05/03 01:03:18;;;;;;;12.03;8.67;;;4.00;99.90;;;;;;5085430;28;20177;-79
2021/05/03 01:05:44;;;;;;;12.40;10.03;;;4.00;99.90;;;;;;5066343;28;20176;-79
2021/05/03 01:08:10;;;;;;;9.13;8.07;;;4.00;99.90;;;;;;5085699;28;20181;-79
2021/05/03 01:10:35;;;;;;;10.40;8.87;;;3.90;99.90;;;;;;5067201;28;20208;-79
2021/05/03 01:13:01;;;;;;;9.37;8.43;;;3.90;99.90;;;;;;5066720;28;20219;-79
2021/05/03 01:15:27;;;;;;;11.97;9.60;;;3.90;99.90;;;;;;5066123;28;20248;-79
2021/05/03 01:17:57;;;;;;;9.37;8.40;;;3.90;99.90;;;;;;5085158;28;20219;-79
2021/05/03 01:20:25;;;;;;;9.23;8.17;;;3.90;99.90;;;;;;5066908;28;20213;-79
2021/05/03 01:22:54;;;;;;;10.30;8.33;;;3.90;99.90;;;;;;5084935;28;20415;-79
2021/05/03 01:25:20;;;;;;;9.90;8.63;;;3.90;99.90;;;;;;5065928;28;20449;-79
2021/05/03 01:27:46;;;;;;;12.53;9.60;;;4.00;99.90;;;;;;5083986;28;20550;-79
2021/05/03 01:30:12;;;;;;;10.57;9.20;;;4.00;99.90;;;;;;5065859;28;20681;-79
2021/05/03 01:32:37;;;;;;;10.77;9.13;;;3.90;99.90;;;;;;5066200;28;20187;-79
2021/05/03 01:35:04;;;;;;;10.33;8.67;;;3.90;99.90;;;;;;5084038;28;20455;-79
2021/05/03 01:37:29;;;;;;;9.37;7.63;;;3.90;99.90;;;;;;5083165;28;20743;-79
2021/05/03 01:39:55;;;;;;;10.03;8.03;;;3.90;99.90;;;;;;5083899;28;20486;-79
2021/05/03 01:42:23;;;;;;;11.17;8.47;;;3.90;99.90;;;;;;5065711;28;20177;-79
2021/05/03 01:44:54;;;;;;;10.43;8.80;;;3.90;99.90;;;;;;5065383;28;20169;-79
2021/05/03 01:47:20;;;;;;;9.87;8.03;;;3.90;99.90;;;;;;5083570;28;20379;-79
2021/05/03 01:49:46;;;;;;;10.40;7.90;;;3.90;99.90;;;;;;5083504;28;20518;-79
2021/05/03 01:52:11;;;;;;;11.00;8.37;;;4.00;99.90;;;;;;5082761;28;20588;-79
2021/05/03 01:54:37;;;;;;;11.60;8.80;;;4.10;99.90;;;;;;5082930;28;20177;-79
2021/05/03 01:57:03;;;;;;;9.60;7.60;;;4.00;99.90;;;;;;5083087;28;20236;-79
2021/05/03 01:59:33;;;;;;;10.03;8.70;;;4.10;99.90;;;;;;5082601;28;20215;-79
2021/05/03 02:01:59;;;;;;;10.87;7.90;;;4.00;99.90;;;;;;5083606;28;20146;-79
2021/05/03 02:04:24;;;;;;;9.13;8.17;;;4.00;99.90;;;;;;5082237;28;20399;-79
2021/05/03 02:06:50;;;;;;;8.93;8.00;;;4.00;99.90;;;;;;5064620;28;20605;-79
2021/05/03 02:09:16;;;;;;;8.33;7.53;;;4.10;99.90;;;;;;5082825;28;20864;-79
2021/05/03 02:11:41;;;;;;;8.03;7.23;;;4.10;99.90;;;;;;5082666;28;20705;-79
2021/05/03 02:14:09;;;;;;;8.67;7.57;;;4.00;99.90;;;;;;5082743;28;20173;-79
2021/05/03 02:16:35;;;;;;;10.83;8.37;;;4.10;99.90;;;;;;5068157;28;20645;-79
2021/05/03 02:19:00;;;;;;;9.43;8.20;;;4.10;99.90;;;;;;5085745;28;20403;-79
2021/05/03 02:21:26;;;;;;;8.43;7.57;;;4.20;99.90;;;;;;5086001;28;20646;-79
2021/05/03 02:23:53;;;;;;;9.23;7.97;;;4.10;99.90;;;;;;5067718;28;20214;-79
2021/05/03 02:26:18;;;;;;;10.43;8.80;;;4.20;99.90;;;;;;5067518;28;20248;-78
2021/05/03 02:28:44;;;;;;;9.17;8.23;;;4.10;99.90;;;;;;5085761;28;20431;-79
2021/05/03 02:31:10;;;;;;;9.20;8.03;;;4.10;99.90;;;;;;5085345;28;20200;-79
2021/05/03 02:33:35;;;;;;;8.40;7.50;;;4.00;99.90;;;;;;5067152;28;20216;-79
2021/05/03 02:36:01;;;;;;;9.33;7.70;;;4.00;99.90;;;;;;5085391;28;20172;-79
2021/05/03 02:38:31;;;;;;;8.57;7.50;;;3.90;99.90;;;;;;5066763;28;20212;-79
2021/05/03 02:40:57;;;;;;;8.90;8.00;;;3.90;99.90;;;;;;5085119;28;20462;-79
2021/05/03 02:43:23;;;;;;;8.67;7.77;;;4.00;99.90;;;;;;5067487;28;20439;-79
2021/05/03 02:45:49;;;;;;;9.33;8.30;;;3.90;99.90;;;;;;5065942;28;20414;-79
2021/05/03 02:48:15;;;;;;;9.43;7.80;;;3.80;99.90;;;;;;5066541;28;20419;-79
2021/05/03 02:50:40;;;;;;;10.10;8.60;;;3.80;99.90;;;;;;5065666;28;20792;-79
2021/05/03 02:53:06;;;;;;;9.50;8.20;;;3.80;99.90;;;;;;5066383;28;20543;-79
2021/05/03 02:55:32;;;;;;;9.13;8.10;;;3.70;99.90;;;;;;5084427;28;20598;-79
2021/05/03 02:57:58;;;;;;;9.97;7.37;;;3.70;99.90;;;;;;5066274;28;20192;-79
2021/05/03 03:00:29;;;;;;;8.90;8.00;;;3.70;99.90;;;;;;5065864;28;20239;-79
2021/05/03 03:02:55;;;;;;;10.00;8.17;;;3.60;99.90;;;;;;5066616;28;20415;-78
2021/05/03 03:05:20;;;;;;;9.70;8.70;;;3.50;99.90;;;;;;5066070;28;20411;-79
2021/05/03 03:07:48;;;;;;;9.90;8.90;;;3.50;99.90;;;;;;5083850;28;20541;-79
2021/05/03 03:10:14;;;;;;;8.80;7.90;;;3.40;99.90;;;;;;5083189;28;20227;-79
2021/05/03 03:12:40;;;;;;;11.10;8.70;;;3.40;99.90;;;;;;5064850;28;20411;-79
2021/05/03 03:15:09;;;;;;;9.40;8.33;;;3.30;99.90;;;;;;5083272;28;20207;-79
2021/05/03 03:17:34;;;;;;;10.13;8.77;;;3.40;99.90;;;;;;5064161;28;20185;-79
2021/05/03 03:20:00;;;;;;;9.87;8.43;;;3.40;99.90;;;;;;5083023;28;20462;-79
2021/05/03 03:22:26;;;;;;;9.33;8.27;;;3.30;99.90;;;;;;5064159;28;20181;-79
2021/05/03 03:24:52;;;;;;;10.33;8.83;;;3.30;99.90;;;;;;5082232;28;20173;-79
2021/05/03 03:27:17;;;;;;;10.13;8.63;;;3.30;99.90;;;;;;5063699;28;20411;-79
2021/05/03 03:29:43;;;;;;;11.20;9.43;;;3.30;99.90;;;;;;5082485;28;20201;-79
2021/05/03 03:32:09;;;;;;;11.33;9.90;;;3.20;99.90;;;;;;5082570;28;20185;-79
2021/05/03 03:34:34;;;;;;;9.80;8.80;;;3.10;99.90;;;;;;5082772;28;20165;-79
2021/05/03 03:37:00;;;;;;;12.57;9.47;;;3.20;99.90;;;;;;5083545;28;20180;-79
2021/05/03 03:39:26;;;;;;;10.40;8.97;;;3.20;99.90;;;;;;5065016;28;20212;-79
2021/05/03 03:41:51;;;;;;;11.27;9.50;;;3.20;99.90;;;;;;5082240;28;20639;-79
2021/05/03 03:44:17;;;;;;;12.40;9.40;;;3.20;99.90;;;;;;5064706;28;20187;-78
2021/05/03 03:46:43;;;;;;;11.50;9.47;;;3.20;99.90;;;;;;5064972;28;20184;-79
2021/05/03 03:49:08;;;;;;;9.87;8.53;;;3.20;99.90;;;;;;5082988;28;20188;-79
2021/05/03 03:51:34;;;;;;;10.63;9.13;;;3.00;99.90;;;;;;5066107;28;20184;-79
2021/05/03 03:53:59;;;;;;;9.93;8.87;;;3.20;99.90;;;;;;5065440;28;20172;-79
2021/05/03 03:56:27;;;;;;;10.50;8.27;;;3.20;99.90;;;;;;5064702;28;20173;-79
2021/05/03 03:58:53;;;;;;;11.60;8.63;;;3.10;99.90;;;;;;5069933;28;20176;-79
2021/05/03 04:01:19;;;;;;;10.57;7.77;;;3.10;99.90;;;;;;5075498;28;20459;-79
2021/05/03 04:03:50;;;;;;;11.53;8.93;;;3.20;99.90;;;;;;5095617;28;20177;-79
2021/05/03 04:09:19;;;;;;;10.67;8.90;;;3.20;99.90;;;;;;5082821;28;20406;-79
2021/05/03 04:23:05;;;;;;;11.47;9.27;;;3.30;99.90;;;;;;5083050;28;20219;-79
2021/05/03 04:25:41;;;;;;;11.00;8.33;;;3.30;99.90;;;;;;5065011;28;20194;-79
2021/05/03 04:28:08;;;;;;;10.20;8.60;;;3.30;99.90;;;;;;5082890;28;20415;-79
2021/05/03 04:30:35;;;;;;;12.73;9.63;;;3.30;99.90;;;;;;5082627;28;20287;-79
2021/05/03 04:33:01;;;;;;;10.77;9.10;;;3.40;99.90;;;;;;5065307;28;20181;-79
2021/05/03 04:35:27;;;;;;;11.83;10.00;;;3.30;99.90;;;;;;5082663;28;20635;-79
2021/05/03 04:37:53;;;;;;;11.33;8.53;;;3.30;99.90;;;;;;5083065;28;20410;-79
2021/05/03 04:40:18;;;;;;;13.33;9.97;;;3.30;99.90;;;;;;5063708;28;20292;-79
2021/05/03 04:42:44;;;;;;;11.43;8.37;;;3.30;99.90;;;;;;5083256;28;20173;-79
2021/05/03 04:45:14;;;;;;;11.37;9.20;;;3.30;99.90;;;;;;5063543;28;20540;-79
2021/05/03 04:47:41;;;;;;;10.87;7.97;;;3.40;99.90;;;;;;5065522;28;20177;-79
2021/05/03 04:50:08;;;;;;;10.13;9.07;;;3.50;99.90;;;;;;5081626;28;20193;-79
2021/05/03 04:52:34;;;;;;;11.57;9.10;;;3.50;99.90;;;;;;5083352;28;20169;-79
2021/05/03 04:55:00;;;;;;;11.30;8.77;;;3.60;99.90;;;;;;5066262;28;20483;-79
2021/05/03 04:57:26;;;;;;;11.70;8.97;;;3.70;99.90;;;;;;5084623;28;20231;-79
2021/05/03 04:59:51;;;;;;;11.27;9.47;;;3.70;99.90;;;;;;5083898;28;20618;-79
2021/05/03 05:02:17;;;;;;;9.03;8.07;;;3.80;99.90;;;;;;5078855;28;20169;-79
2021/05/03 05:04:43;;;;;;;10.00;8.67;;;3.90;99.90;;;;;;5063917;28;20176;-78
2021/05/03 05:07:08;;;;;;;10.67;8.87;;;4.10;99.90;;;;;;5064583;28;20177;-79
2021/05/03 05:09:34;;;;;;;9.83;7.97;;;4.00;99.90;;;;;;5064603;28;20204;-79
2021/05/03 05:12:00;;;;;;;8.37;7.47;;;4.20;99.90;;;;;;5072815;28;20169;-79
2021/05/03 05:14:26;;;;;;;9.43;8.37;;;4.10;99.90;;;;;;5050540;28;20227;-79
2021/05/03 05:16:51;;;;;;;9.97;8.63;;;4.20;99.90;;;;;;5082714;28;20180;-79
2021/05/03 05:19:17;;;;;;;10.07;8.73;;;4.20;99.90;;;;;;5064968;28;20201;-78
2021/05/03 05:21:44;;;;;;;10.67;9.17;;;4.30;99.90;;;;;;5062053;28;20197;-79
2021/05/03 05:24:10;;;;;;;9.47;7.53;;;4.40;99.90;;;;;;5061294;28;20548;-79
2021/05/03 05:26:36;;;;;;;11.10;8.40;;;4.40;99.90;;;;;;5079866;28;20222;-79
2021/05/03 05:29:01;;;;;;;10.03;8.27;;;4.50;99.90;;;;;;5079722;28;20169;-79
2021/05/03 05:31:27;;;;;;;10.27;9.10;;;4.50;99.90;;;;;;5080855;28;20173;-80
2021/05/03 05:33:53;;;;;;;9.47;8.27;;;4.50;99.90;;;;;;5064965;28;20172;-78
2021/05/03 05:36:18;;;;;;;11.93;7.97;;;4.40;99.90;;;;;;5083139;28;20642;-79
2021/05/03 05:38:44;;;;;;;11.23;8.67;;;4.50;99.90;;;;;;5083345;28;20188;-79
2021/05/03 05:41:13;;;;;;;9.03;8.03;;;4.50;99.90;;;;;;5083059;28;20207;-79
2021/05/03 05:43:39;;;;;;;11.20;7.73;;;4.60;99.90;;;;;;5065604;28;20178;-78
2021/05/03 05:46:05;;;;;;;9.07;7.70;;;4.80;99.90;;;;;;5083106;28;20196;-79
2021/05/03 05:48:31;;;;;;;9.53;7.67;;;4.90;99.90;;;;;;5083177;28;20171;-79
2021/05/03 05:50:57;;;;;;;8.97;8.07;;;5.00;99.90;;;;;;5086132;28;20197;-79
2021/05/03 05:53:22;;;;;;;9.77;7.63;;;4.90;99.90;;;;;;5069272;28;20642;-79
2021/05/03 05:55:48;;;;;;;7.67;6.77;;;4.90;99.90;;;;;;5088436;28;20184;-79
2021/05/03 05:58:13;;;;;;;7.20;6.27;;;4.50;99.90;;;;;;5069530;28;20192;-79
2021/05/03 06:00:39;;;;;;;6.73;6.00;;;4.20;99.90;;;;;;5070831;28;20209;-79
2021/05/03 06:03:05;;;;;;;10.33;6.87;;;4.00;99.90;;;;;;5088692;28;20172;-79
2021/05/03 06:05:30;;;;;;;8.27;6.80;;;3.80;99.90;;;;;;5088964;28;20181;-79
2021/05/03 06:07:56;;;;;;;7.10;6.23;;;3.80;99.90;;;;;;5069990;28;20300;-79
2021/05/03 06:10:22;;;;;;;8.27;6.97;;;3.80;99.90;;;;;;5088625;28;20189;-79
2021/05/03 06:12:47;;;;;;;7.97;6.93;;;3.80;99.90;;;;;;5088273;28;20196;-79
2021/05/03 06:15:13;;;;;;;8.60;6.93;;;3.90;99.90;;;;;;5088045;28;20594;-79
2021/05/03 06:17:39;;;;;;;7.97;6.87;;;3.90;99.90;;;;;;5087760;28;20195;-79
2021/05/03 06:20:05;;;;;;;8.87;6.93;;;3.90;99.90;;;;;;5087546;28;20208;-79
2021/05/03 06:22:32;;;;;;;8.47;7.33;;;4.00;99.90;;;;;;5088513;28;20513;-79
2021/05/03 06:25:00;;;;;;;9.03;7.80;;;4.10;99.90;;;;;;5088098;28;20417;-79
2021/05/03 06:27:26;;;;;;;9.73;7.80;;;4.30;99.90;;;;;;5069309;28;20465;-79
2021/05/03 06:29:52;;;;;;;8.47;7.10;;;4.40;99.90;;;;;;5086009;28;20466;-79
2021/05/03 06:32:18;;;;;;;9.20;7.60;;;4.40;99.90;;;;;;5085684;28;20415;-78
2021/05/03 06:34:43;;;;;;;9.23;7.40;;;4.60;99.90;;;;;;5085399;28;20189;-79
2021/05/03 06:37:09;;;;;;;9.00;7.13;;;4.60;99.90;;;;;;5086528;28;20186;-79
2021/05/03 06:39:35;;;;;;;8.70;7.20;;;4.70;99.90;;;;;;5086870;28;20213;-79
2021/05/03 06:42:01;;;;;;;8.13;6.80;;;4.60;99.90;;;;;;5087979;28;20510;-79
2021/05/03 06:44:28;;;;;;;9.87;7.30;;;4.70;99.90;;;;;;5085980;28;20263;-78
2021/05/03 06:46:54;;;;;;;10.27;7.40;;;4.80;99.90;;;;;;5085292;28;20165;-79
2021/05/03 06:49:20;;;;;;;10.67;7.93;;;5.00;99.90;;;;;;5067991;28;20199;-78
2021/05/03 06:51:46;;;;;;;11.60;7.70;;;5.20;99.90;;;;;;5068067;28;20185;-81
2021/05/03 06:54:12;;;;;;;8.50;7.10;;;5.40;99.90;;;;;;5068215;28;20197;-79
2021/05/03 06:56:37;;;;;;;8.47;7.57;;;5.30;99.90;;;;;;5068429;28;20181;-78
2021/05/03 06:59:03;;;;;;;9.60;7.90;;;5.20;99.90;;;;;;5069349;28;20173;-79
2021/05/03 07:01:28;;;;;;;9.20;7.83;;;5.30;99.90;;;;;;5086676;28;20206;-78
2021/05/03 07:03:54;;;;;;;9.37;7.60;;;5.30;99.90;;;;;;5069576;28;20260;-79
2021/05/03 07:06:20;;;;;;;6.87;6.13;;;5.30;99.90;;;;;;5087221;28;20255;-79
2021/05/03 07:08:46;;;;;;;7.10;6.37;;;5.40;99.90;;;;;;5069215;28;20271;-79
2021/05/03 07:11:14;;;;;;;6.90;6.20;;;5.30;99.90;;;;;;5068378;28;20209;-79
2021/05/03 07:13:40;;;;;;;7.83;6.47;;;5.20;99.90;;;;;;5067015;28;20555;-79
2021/05/03 07:16:06;;;;;;;7.73;6.30;;;5.20;99.90;;;;;;5085697;28;20228;-79
2021/05/03 07:18:32;;;;;;;7.67;6.63;;;5.30;99.90;;;;;;5088918;28;20182;-79
2021/05/03 07:20:57;;;;;;;8.47;5.97;;;5.50;99.90;;;;;;5090446;28;20220;-78
2021/05/03 07:23:23;;;;;;;6.97;5.83;;;5.60;99.90;;;;;;5088258;28;20178;-79
2021/05/03 07:25:49;;;;;;;8.67;6.00;;;5.70;99.90;;;;;;5083424;28;20598;-78
2021/05/03 07:28:15;;;;;;;8.57;5.87;;;5.70;99.90;;;;;;5066839;28;20185;-79
2021/05/03 07:30:40;;;;;;;7.83;6.20;;;5.70;99.90;;;;;;5065585;28;20202;-79
2021/05/03 07:33:06;;;;;;;7.57;6.47;;;5.80;99.90;;;;;;5084059;28;20205;-78
2021/05/03 07:35:32;;;;;;;8.17;6.47;;;5.80;99.90;;;;;;5084635;28;20256;-79
2021/05/03 07:37:58;;;;;;;6.20;5.60;;;5.90;99.90;;;;;;5083976;28;20174;-78
2021/05/03 07:40:23;;;;;;;6.67;6.07;;;5.90;99.90;;;;;;5083073;28;20292;-79
2021/05/03 07:42:49;;;;;;;7.93;6.37;;;5.90;99.90;;;;;;5083315;28;20166;-78
2021/05/03 07:45:16;;;;;;;7.17;6.37;;;6.10;99.90;;;;;;5083238;28;20174;-78
2021/05/03 07:47:43;;;;;;;6.93;6.17;;;6.40;99.90;;;;;;5066547;28;20181;-79
2021/05/03 07:50:10;;;;;;;6.23;5.60;;;6.70;99.90;;;;;;5083931;28;20198;-79
2021/05/03 07:52:36;;;;;;;7.27;6.30;;;7.20;99.90;;;;;;5065276;28;20180;-78
2021/05/03 07:55:03;;;;;;;8.53;6.60;;;7.90;99.90;;;;;;5085071;28;20186;-79
2021/05/03 07:57:28;;;;;;;6.63;5.90;;;8.70;99.90;;;;;;5085835;28;20202;-78
2021/05/03 07:59:55;;;;;;;6.90;6.20;;;9.60;99.90;;;;;;5066042;28;20205;-79
2021/05/03 08:02:21;;;;;;;6.63;6.03;;;10.00;99.90;;;;;;5085931;28;20176;-79
2021/05/03 08:04:47;;;;;;;7.33;5.40;;;9.40;99.90;;;;;;5085145;28;20169;-78
2021/05/03 08:07:12;;;;;;;5.67;5.17;;;9.30;99.90;;;;;;5084920;28;20545;-79
2021/05/03 08:09:39;;;;;;;6.50;5.90;;;8.90;99.90;;;;;;5084051;28;20196;-79
2021/05/03 08:12:06;;;;;;;6.20;5.60;;;8.40;99.90;;;;;;5063995;28;20271;-79
2021/05/03 08:14:32;;;;;;;6.67;5.90;;;7.90;99.90;;;;;;5062197;28;20181;-79
2021/05/03 08:17:03;;;;;;;6.53;5.93;;;7.50;99.90;;;;;;5065642;28;20184;-78
2021/05/03 08:19:29;;;;;;;7.77;6.60;;;7.30;99.90;;;;;;5083197;28;20189;-79
2021/05/03 08:21:56;;;;;;;8.27;6.30;;;7.10;99.90;;;;;;5066260;28;20195;-79
2021/05/03 08:24:22;;;;;;;6.87;6.17;;;7.40;99.90;;;;;;5065321;28;20179;-78
2021/05/03 08:26:47;;;;;;;8.20;5.70;;;8.30;99.90;;;;;;5065939;28;20534;-78
2021/05/03 08:29:13;;;;;;;7.20;5.77;;;9.50;99.90;;;;;;5084037;28;20626;-79
2021/05/03 08:31:39;;;;;;;6.97;5.70;;;9.40;99.90;;;;;;5065963;28;20205;-79
2021/05/03 08:34:05;;;;;;;6.33;5.37;;;9.00;99.90;;;;;;5066625;28;20600;-78
2021/05/03 08:36:30;;;;;;;7.37;5.93;;;8.60;99.90;;;;;;5085137;28;20168;-79
2021/05/03 08:38:56;;;;;;;7.17;6.27;;;8.40;99.90;;;;;;5085616;28;20181;-79
2021/05/03 08:41:22;;;;;;;7.10;5.73;;;8.30;99.90;;;;;;5085055;28;20207;-79
2021/05/03 08:43:51;;;;;;;7.07;5.40;;;8.10;99.90;;;;;;5067314;28;20181;-79
2021/05/03 08:46:26;;;;;;;6.13;5.33;;;7.90;99.90;;;;;;5067551;28;20181;-79
2021/05/03 08:49:17;;;;;;;8.33;5.53;;;8.70;99.90;;;;;;5068332;28;20173;-79
2021/05/03 08:54:34;;;;;;;7.90;5.07;;;8.90;99.90;;;;;;5084973;28;20242;-79
2021/05/03 08:57:00;;;;;;;9.47;5.23;;;9.40;99.90;;;;;;5067340;28;20173;-78
2021/05/03 08:59:26;;;;;;;6.50;5.57;;;11.20;99.90;;;;;;5085807;28;20621;-79
2021/05/03 09:01:55;;;;;;;5.20;4.43;;;11.30;99.90;;;;;;5086552;28;20258;-79
2021/05/03 09:04:22;;;;;;;6.77;5.60;;;10.30;99.90;;;;;;5067644;28;20575;-79
2021/05/03 09:07:06;;;;;;;4.87;4.37;;;9.60;99.90;;;;;;5085999;28;20184;-79
2021/05/03 09:09:39;;;;;;;6.07;4.80;;;8.80;99.90;;;;;;5085753;28;20217;-79
2021/05/03 09:12:06;;;;;;;6.37;5.77;;;8.20;99.90;;;;;;5085381;28;20622;-79
2021/05/03 09:14:33;;;;;;;5.80;5.20;;;7.90;99.90;;;;;;5067862;28;20191;-79
2021/05/03 09:17:00;;;;;;;6.60;5.93;;;7.90;99.90;;;;;;5068079;28;20212;-78
2021/05/03 09:19:27;;;;;;;14.07;5.70;;;9.10;99.90;;;;;;5085192;28;20209;-79
2021/05/03 09:21:54;;;;;;;8.30;5.57;;;10.10;99.90;;;;;;5085884;28;20176;-79
2021/05/03 09:24:30;;;;;;;8.23;4.90;;;11.40;99.90;;;;;;5089069;28;20164;-79
2021/05/03 09:27:05;;;;;;;6.33;5.07;;;12.30;99.90;;;;;;5071921;28;20180;-78
2021/05/03 09:29:41;;;;;;;19.90;4.90;;;12.90;99.90;;;;;;5071542;28;20666;-79
2021/05/03 09:32:07;;;;;;;4.30;3.70;;;11.70;98.90;;;;;;5089580;28;20168;-80
2021/05/03 09:34:53;;;;;;;4.43;4.03;;;10.50;95.80;;;;;;5071721;28;20165;-79
2021/05/03 09:37:33;;;;;;;4.07;3.60;;;10.60;98.40;;;;;;5090093;28;20185;-79
2021/05/03 09:40:18;;;;;;;5.63;3.77;;;10.50;96.30;;;;;;5088605;28;20685;-80
2021/05/03 09:42:54;;;;;;;5.20;3.80;;;10.30;96.80;;;;;;5072220;28;20177;-79
2021/05/03 09:45:23;;;;;;;3.77;3.33;;;10.40;96.20;;;;;;5072863;28;20619;-79
2021/05/03 09:47:55;;;;;;;5.33;3.13;;;11.20;94.80;;;;;;5090143;28;20195;-79
2021/05/03 09:50:26;;;;;;;4.10;3.20;;;12.00;93.70;;;;;;5089414;28;20200;-79
2021/05/03 09:53:13;;;;;;;3.67;3.37;;;13.00;91.10;;;;;;5071104;28;20184;-79
2021/05/03 09:55:47;;;;;;;4.97;3.40;;;13.00;87.50;;;;;;5070874;28;20210;-79
2021/05/03 09:58:17;;;;;;;3.90;3.50;;;12.70;84.30;;;;;;5089380;28;20529;-79
2021/05/03 10:00:54;;;;;;;3.57;3.23;;;12.00;87.10;;;;;;5071415;28;20254;-79
2021/05/03 10:03:27;;;;;;;4.77;3.20;;;11.00;88.40;;;;;;5089653;28;20175;-79
2021/05/03 10:05:53;;;;;;;3.30;3.00;;;10.70;91.40;;;;;;5070695;28;20590;-79
2021/05/03 10:08:19;;;;;;;4.00;3.13;;;10.40;92.70;;;;;;5070925;28;20183;-79
2021/05/03 10:10:49;;;;;;;3.63;3.33;;;10.00;92.80;;;;;;5089433;28;20555;-79
2021/05/03 10:13:15;;;;;;;5.00;3.90;;;9.70;94.50;;;;;;5073840;28;20181;-78
2021/05/03 10:15:41;;;;;;;3.73;3.30;;;10.00;93.70;;;;;;5094338;28;20180;-79
2021/05/03 10:18:08;;;;;;;4.93;3.30;;;10.20;91.30;;;;;;5042299;28;20260;-79
2021/05/03 10:20:34;;;;;;;3.47;3.00;;;10.10;91.40;;;;;;5072942;28;20221;-79
2021/05/03 10:23:00;;;;;;;6.30;2.60;;;10.00;90.30;;;;;;5073754;28;20199;-79
2021/05/03 10:25:25;;;;;;;4.77;2.70;;;9.90;90.70;;;;;;5091197;28;20180;-80
2021/05/03 10:27:53;;;;;;;3.37;2.60;;;10.20;90.20;;;;;;5074608;28;20190;-79
2021/05/03 10:30:20;;;;;;;3.37;2.87;;;10.70;91.90;;;;;;5089684;28;20192;-79
2021/05/03 10:33:04;;;;;;;6.00;3.10;;;11.40;91.40;;;;;;5071727;28;20175;-79
2021/05/03 10:35:38;;;;;;;3.00;2.70;;;11.40;89.20;;;;;;5090297;28;20199;-79
2021/05/03 10:38:04;;;;;;;4.20;2.73;;;11.10;83.80;;;;;;5093253;28;20268;-79
2021/05/03 10:40:33;;;;;;;5.40;2.73;;;10.60;79.10;;;;;;5093139;28;20745;-79
2021/05/03 10:43:04;;;;;;;10.07;3.60;;;10.90;83.40;;;;;;5091283;28;20175;-80
2021/05/03 10:48:32;;;;;;;3.87;3.00;;;12.50;87.30;;;;;;5071909;28;20188;-80
2021/05/03 10:50:59;;;;;;;4.97;3.20;;;13.00;79.80;;;;;;5064344;28;20226;-79
2021/05/03 10:53:44;;;;;;;3.40;2.90;;;12.80;79.40;;;;;;5070701;28;20180;-79
2021/05/03 10:56:11;;;;;;;4.77;3.00;;;12.60;86.30;;;;;;5088226;28;20172;-79
2021/05/03 10:58:53;;;;;;;2.90;2.47;;;13.10;81.20;;;;;;5086962;28;20224;-79
2021/05/03 11:01:19;;;;;;;6.33;3.57;;;13.80;78.90;;;;;;5087795;28;20268;-79
2021/05/03 11:03:54;;;;;;;3.13;2.70;;;13.70;74.80;;;;;;5087593;28;20173;-79
2021/05/03 11:06:49;;;;;;;3.13;2.83;;;13.40;76.40;;;;;;5088341;28;20161;-79
2021/05/03 11:09:38;;;;;;;3.00;2.70;;;12.90;78.60;;;;;;5056369;28;20193;-79
2021/05/03 11:12:09;;;;;;;3.33;2.73;;;12.20;77.80;;;;;;5066155;28;20177;-79
2021/05/03 11:14:37;;;;;;;6.00;3.30;;;11.80;81.40;;;;;;5081233;28;20173;-79
2021/05/03 11:17:03;;;;;;;3.00;2.70;;;11.40;83.30;;;;;;5069397;28;20188;-79
2021/05/03 11:22:03;;;;;;;3.30;3.00;;;11.50;81.10;;;;;;5087768;28;20191;-79
2021/05/03 11:24:35;;;;;;;3.10;2.80;;;12.60;81.20;;;;;;5087042;28;20165;-79
2021/05/03 11:27:28;;;;;;;3.03;2.73;;;13.50;78.00;;;;;;5068966;28;20180;-79
2021/05/03 11:32:13;;;;;;;4.27;2.97;;;14.40;72.60;;;;;;5082791;28;20226;-78
2021/05/03 11:37:31;;;;;;;4.47;2.70;;;14.30;67.80;;;;;;5083360;28;20179;-78
2021/05/03 11:45:30;;;;;;;2.73;2.53;;;15.60;62.70;;;;;;5087850;28;20287;-79
2021/05/03 11:47:58;;;;;;;4.77;2.80;;;15.00;66.00;;;;;;5067010;28;20169;-79
2021/05/03 11:50:28;;;;;;;5.43;3.03;;;13.70;65.80;;;;;;5085889;28;20249;-79
2021/05/03 11:52:55;;;;;;;3.10;2.63;;;13.20;70.50;;;;;;5084041;28;20203;-80
2021/05/03 11:55:24;;;;;;;2.87;2.53;;;13.40;69.80;;;;;;5085293;28;20177;-80
2021/05/03 11:57:50;;;;;;;3.17;2.20;;;12.60;66.30;;;;;;5085672;28;20188;-79
2021/05/03 12:00:22;;;;;;;2.60;1.90;;;12.30;67.70;;;;;;5083760;28;20201;-79
2021/05/03 12:03:00;;;;;;;2.63;2.43;;;11.90;67.90;;;;;;5084108;28;20513;-78
2021/05/03 12:05:26;;;;;;;2.47;1.90;;;11.80;69.70;;;;;;5085998;28;20160;-78
2021/05/03 12:07:52;;;;;;;2.20;2.00;;;12.10;64.90;;;;;;5066786;28;20169;-79
2021/05/03 12:10:19;;;;;;;3.20;2.77;;;13.80;65.00;;;;;;5067867;28;20201;-79
2021/05/03 12:12:49;;;;;;;3.83;1.93;;;15.70;61.90;;;;;;5066863;28;20229;-79
2021/05/03 12:15:25;;;;;;;2.70;2.30;;;16.50;57.50;;;;;;5084753;28;20541;-80
2021/05/03 12:17:50;;;;;;;6.40;2.30;;;17.30;60.40;;;;;;5066889;28;20184;-80
2021/05/03 12:20:22;;;;;;;2.37;2.10;;;17.40;55.40;;;;;;5085309;28;20235;-80
2021/05/03 12:22:58;;;;;;;3.93;2.50;;;17.70;56.80;;;;;;5067279;28;20196;-79
2021/05/03 12:25:30;;;;;;;2.43;2.10;;;17.70;57.10;;;;;;5085528;28;20172;-78
2021/05/03 12:27:56;;;;;;;2.77;2.57;;;16.60;55.80;;;;;;5084837;28;20174;-79
2021/05/03 12:30:24;;;;;;;2.93;2.63;;;14.80;54.70;;;;;;5083895;28;20208;-79
2021/05/03 12:32:50;;;;;;;3.90;2.70;;;14.30;57.20;;;;;;5083946;28;20177;-81
2021/05/03 12:35:19;;;;;;;4.17;2.37;;;13.60;58.60;;;;;;5065985;28;20191;-79
2021/05/03 12:37:45;;;;;;;4.50;2.33;;;13.10;59.20;;;;;;5066631;28;20184;-80
2021/05/03 12:40:12;;;;;;;2.10;1.90;;;13.10;59.20;;;;;;5084670;28;20230;-79
2021/05/03 12:42:40;;;;;;;1.77;1.67;;;15.00;59.50;;;;;;5066438;28;20211;-79
2021/05/03 12:45:22;;;;;;;1.87;1.70;;;15.50;53.40;;;;;;5064689;28;20596;-79
2021/05/03 12:57:04;;;;;;;4.43;2.03;;;14.10;55.40;;;;;;5080368;28;20209;-78
2021/05/03 12:59:48;;;;;;;2.17;1.97;;;13.00;55.70;;;;;;5059197;28;20204;-79
2021/05/03 13:04:53;;;;;;;2.80;2.43;;;16.60;56.60;;;;;;5074840;28;20176;-77
2021/05/03 13:07:47;;;;;;;2.60;2.27;;;17.60;53.90;;;;;;5075338;28;20158;-77
2021/05/03 13:29:40;;;;;;;2.53;2.33;;;17.80;54.30;;;;;;5082620;28;20200;-80
2021/05/03 13:32:06;;;;;;;2.80;2.57;;;18.20;52.50;;;;;;5083317;28;20166;-79
2021/05/03 13:34:32;;;;;;;2.80;2.03;;;17.20;53.20;;;;;;5063930;28;20212;-80
2021/05/03 13:36:58;;;;;;;3.70;2.43;;;15.90;51.40;;;;;;5082414;28;20170;-78
2021/05/03 13:39:24;;;;;;;3.33;2.43;;;16.00;53.80;;;;;;5063116;28;20206;-79
2021/05/03 13:41:50;;;;;;;2.80;2.60;;;15.40;53.40;;;;;;5082519;28;20181;-79
2021/05/03 13:44:17;;;;;;;4.40;2.33;;;14.50;56.20;;;;;;5083393;28;20216;-79
2021/05/03 13:46:44;;;;;;;3.23;2.30;;;14.40;56.20;;;;;;5086934;28;20172;-79
2021/05/03 13:49:10;;;;;;;3.20;2.90;;;14.40;56.60;;;;;;5083974;28;20198;-79
2021/05/03 13:51:36;;;;;;;2.73;2.37;;;14.90;57.40;;;;;;5066203;28;20181;-79
2021/05/03 13:54:02;;;;;;;4.27;2.50;;;15.50;60.30;;;;;;5088261;28;20253;-78
2021/05/03 13:56:29;;;;;;;2.50;2.30;;;16.80;54.80;;;;;;5092133;28;20240;-79